sensor_id;sensor_type;location;lat;lon;timestamp;P1;durP1;ratioP1;P2;durP2;ratioP2
8088;SDS011;57635;49.194;12.104;2023-05-16T00:00:35;11.00;;;10.00;;
8088;SDS011;57635;49.194;12.104;2023-05-16T00:03:03;9.83;;;9.20;;
8088;SDS011;57635;49.194;12.104;2023-05-16T00:05:33;9.47;;;8.87;;
8088;SDS011;57635;49.194;12.104;2023-05-16T00:08:01;9.23;;;8.63;;
8088;SDS011;57635;49.194;12.104;2023-05-16T00:10:28;9.90;;;9.20;;
8088;SDS011;57635;49.194;12.104;2023-05-16T00:12:56;10.57;;;9.77;;
8088;SDS011;57635;49.194;12.104;2023-05-16T00:15:23;9.73;;;9.13;;
8088;SDS011;57635;49.194;12.104;2023-05-16T00:17:51;10.10;;;9.40;;
8088;SDS011;57635;49.194;12.104;2023-05-16T00:20:23;10.83;;;10.03;;
8088;SDS011;57635;49.194;12.104;2023-05-16T00:22:52;10.33;;;9.63;;
8088;SDS011;57635;49.194;12.104;2023-05-16T00:25:20;10.73;;;10.03;;
8088;SDS011;57635;49.194;12.104;2023-05-16T00:27:47;10.57;;;9.73;;
8088;SDS011;57635;49.194;12.104;2023-05-16T00:30:15;11.07;;;10.20;;
8088;SDS011;57635;49.194;12.104;2023-05-16T00:32:42;10.10;;;9.40;;
8088;SDS011;57635;49.194;12.104;2023-05-16T00:35:10;9.63;;;8.93;;
8088;SDS011;57635;49.194;12.104;2023-05-16T00:37:38;10.83;;;9.83;;
8088;SDS011;57635;49.194;12.104;2023-05-16T00:40:08;10.33;;;9.53;;
8088;SDS011;57635;49.194;12.104;2023-05-16T00:42:36;10.00;;;9.20;;
8088;SDS011;57635;49.194;12.104;2023-05-16T00:45:05;10.23;;;9.53;;
8088;SDS011;57635;49.194;12.104;2023-05-16T00:47:33;9.83;;;9.13;;
8088;SDS011;57635;49.194;12.104;2023-05-16T00:50:01;10.80;;;9.90;;
8088;SDS011;57635;49.194;12.104;2023-05-16T00:52:29;11.13;;;10.33;;
8088;SDS011;57635;49.194;12.104;2023-05-16T00:54:58;11.23;;;10.23;;
8088;SDS011;57635;49.194;12.104;2023-05-16T00:57:27;10.13;;;9.37;;
8088;SDS011;57635;49.194;12.104;2023-05-16T00:59:55;11.37;;;10.37;;
8088;SDS011;57635;49.194;12.104;2023-05-16T01:02:23;9.93;;;9.13;;
8088;SDS011;57635;49.194;12.104;2023-05-16T01:04:53;11.17;;;10.37;;
8088;SDS011;57635;49.194;12.104;2023-05-16T01:07:21;11.07;;;10.27;;
8088;SDS011;57635;49.194;12.104;2023-05-16T01:09:49;11.70;;;10.80;;
8088;SDS011;57635;49.194;12.104;2023-05-16T01:12:20;10.90;;;10.10;;
8088;SDS011;57635;49.194;12.104;2023-05-16T01:14:55;11.03;;;10.23;;
8088;SDS011;57635;49.194;12.104;2023-05-16T01:17:31;10.80;;;10.00;;
8088;SDS011;57635;49.194;12.104;2023-05-16T01:20:05;11.23;;;10.43;;
8088;SDS011;57635;49.194;12.104;2023-05-16T01:22:45;12.23;;;11.30;;
8088;SDS011;57635;49.194;12.104;2023-05-16T01:25:25;11.10;;;10.30;;
8088;SDS011;57635;49.194;12.104;2023-05-16T01:27:59;11.77;;;10.97;;
8088;SDS011;57635;49.194;12.104;2023-05-16T01:30:30;11.77;;;10.87;;
8088;SDS011;57635;49.194;12.104;2023-05-16T01:32:59;11.33;;;10.53;;
8088;SDS011;57635;49.194;12.104;2023-05-16T01:35:26;11.87;;;10.97;;
8088;SDS011;57635;49.194;12.104;2023-05-16T01:37:56;11.67;;;10.77;;
8088;SDS011;57635;49.194;12.104;2023-05-16T01:40:27;10.67;;;9.77;;
8088;SDS011;57635;49.194;12.104;2023-05-16T01:43:00;11.70;;;10.80;;
8088;SDS011;57635;49.194;12.104;2023-05-16T01:45:32;12.07;;;11.17;;
8088;SDS011;57635;49.194;12.104;2023-05-16T01:48:03;13.47;;;11.40;;
8088;SDS011;57635;49.194;12.104;2023-05-16T01:50:34;12.53;;;11.43;;
8088;SDS011;57635;49.194;12.104;2023-05-16T01:53:06;11.37;;;10.57;;
8088;SDS011;57635;49.194;12.104;2023-05-16T01:55:37;10.43;;;9.73;;
8088;SDS011;57635;49.194;12.104;2023-05-16T01:58:11;10.40;;;9.57;;
8088;SDS011;57635;49.194;12.104;2023-05-16T02:00:40;10.73;;;9.93;;
8088;SDS011;57635;49.194;12.104;2023-05-16T02:03:08;9.67;;;8.97;;
8088;SDS011;57635;49.194;12.104;2023-05-16T02:05:36;11.03;;;10.13;;
8088;SDS011;57635;49.194;12.104;2023-05-16T02:08:03;11.07;;;10.27;;
8088;SDS011;57635;49.194;12.104;2023-05-16T02:10:31;11.53;;;10.73;;
8088;SDS011;57635;49.194;12.104;2023-05-16T02:12:59;10.37;;;9.67;;
8088;SDS011;57635;49.194;12.104;2023-05-16T02:15:28;11.00;;;10.30;;
8088;SDS011;57635;49.194;12.104;2023-05-16T02:17:55;12.33;;;11.30;;
8088;SDS011;57635;49.194;12.104;2023-05-16T02:20:23;11.83;;;10.83;;
8088;SDS011;57635;49.194;12.104;2023-05-16T02:22:51;12.07;;;11.10;;
8088;SDS011;57635;49.194;12.104;2023-05-16T02:25:18;11.30;;;10.50;;
8088;SDS011;57635;49.194;12.104;2023-05-16T02:27:46;11.27;;;10.47;;
8088;SDS011;57635;49.194;12.104;2023-05-16T02:30:14;11.20;;;10.40;;
8088;SDS011;57635;49.194;12.104;2023-05-16T02:32:43;11.20;;;10.40;;
8088;SDS011;57635;49.194;12.104;2023-05-16T02:35:11;11.63;;;10.63;;
8088;SDS011;57635;49.194;12.104;2023-05-16T02:37:38;10.50;;;9.80;;
8088;SDS011;57635;49.194;12.104;2023-05-16T02:40:07;10.67;;;9.87;;
8088;SDS011;57635;49.194;12.104;2023-05-16T02:42:35;11.40;;;10.57;;
8088;SDS011;57635;49.194;12.104;2023-05-16T02:45:03;10.17;;;9.37;;
8088;SDS011;57635;49.194;12.104;2023-05-16T02:47:31;10.27;;;9.57;;
8088;SDS011;57635;49.194;12.104;2023-05-16T02:50:01;9.47;;;8.57;;
8088;SDS011;57635;49.194;12.104;2023-05-16T02:52:29;10.20;;;9.40;;
8088;SDS011;57635;49.194;12.104;2023-05-16T02:54:56;10.77;;;9.97;;
8088;SDS011;57635;49.194;12.104;2023-05-16T02:57:44;11.07;;;10.27;;
8088;SDS011;57635;49.194;12.104;2023-05-16T03:00:12;11.83;;;10.93;;
8088;SDS011;57635;49.194;12.104;2023-05-16T03:02:43;12.07;;;11.07;;
8088;SDS011;57635;49.194;12.104;2023-05-16T03:05:13;12.20;;;11.30;;
8088;SDS011;57635;49.194;12.104;2023-05-16T03:07:41;11.93;;;10.93;;
8088;SDS011;57635;49.194;12.104;2023-05-16T03:10:09;13.87;;;12.60;;
8088;SDS011;57635;49.194;12.104;2023-05-16T03:12:37;12.07;;;11.17;;
8088;SDS011;57635;49.194;12.104;2023-05-16T03:15:05;13.70;;;12.60;;
8088;SDS011;57635;49.194;12.104;2023-05-16T03:17:34;12.77;;;11.70;;
8088;SDS011;57635;49.194;12.104;2023-05-16T03:20:02;13.27;;;12.10;;
8088;SDS011;57635;49.194;12.104;2023-05-16T03:22:31;13.50;;;12.30;;
8088;SDS011;57635;49.194;12.104;2023-05-16T03:24:59;12.60;;;11.63;;
8088;SDS011;57635;49.194;12.104;2023-05-16T03:27:26;13.60;;;12.10;;
8088;SDS011;57635;49.194;12.104;2023-05-16T03:29:54;11.83;;;10.87;;
8088;SDS011;57635;49.194;12.104;2023-05-16T03:32:22;12.43;;;11.43;;
8088;SDS011;57635;49.194;12.104;2023-05-16T03:34:50;12.23;;;11.13;;
8088;SDS011;57635;49.194;12.104;2023-05-16T03:37:18;11.73;;;10.83;;
8088;SDS011;57635;49.194;12.104;2023-05-16T03:39:47;12.17;;;11.27;;
8088;SDS011;57635;49.194;12.104;2023-05-16T03:42:15;12.50;;;11.53;;
8088;SDS011;57635;49.194;12.104;2023-05-16T03:44:43;12.20;;;11.20;;
8088;SDS011;57635;49.194;12.104;2023-05-16T03:47:11;11.33;;;10.33;;
8088;SDS011;57635;49.194;12.104;2023-05-16T03:49:38;12.30;;;11.30;;
8088;SDS011;57635;49.194;12.104;2023-05-16T03:52:06;12.60;;;11.67;;
8088;SDS011;57635;49.194;12.104;2023-05-16T03:54:33;11.40;;;10.47;;
8088;SDS011;57635;49.194;12.104;2023-05-16T03:57:03;11.60;;;10.80;;
8088;SDS011;57635;49.194;12.104;2023-05-16T03:59:31;12.60;;;11.60;;
8088;SDS011;57635;49.194;12.104;2023-05-16T04:01:59;12.50;;;11.50;;
8088;SDS011;57635;49.194;12.104;2023-05-16T04:04:27;12.80;;;11.77;;
8088;SDS011;57635;49.194;12.104;2023-05-16T04:06:54;12.43;;;11.37;;
8088;SDS011;57635;49.194;12.104;2023-05-16T04:09:22;11.50;;;10.60;;
8088;SDS011;57635;49.194;12.104;2023-05-16T04:11:50;13.47;;;12.27;;
8088;SDS011;57635;49.194;12.104;2023-05-16T04:14:18;12.00;;;11.10;;
8088;SDS011;57635;49.194;12.104;2023-05-16T04:16:46;12.63;;;11.73;;
8088;SDS011;57635;49.194;12.104;2023-05-16T04:19:14;13.93;;;12.90;;
8088;SDS011;57635;49.194;12.104;2023-05-16T04:21:41;13.13;;;12.13;;
8088;SDS011;57635;49.194;12.104;2023-05-16T04:24:09;13.93;;;12.63;;
8088;SDS011;57635;49.194;12.104;2023-05-16T04:26:37;13.77;;;12.77;;
8088;SDS011;57635;49.194;12.104;2023-05-16T04:29:04;13.37;;;12.20;;
8088;SDS011;57635;49.194;12.104;2023-05-16T04:31:33;13.97;;;12.87;;
8088;SDS011;57635;49.194;12.104;2023-05-16T04:34:02;12.60;;;11.60;;
8088;SDS011;57635;49.194;12.104;2023-05-16T04:36:29;12.40;;;11.50;;
8088;SDS011;57635;49.194;12.104;2023-05-16T04:38:57;12.80;;;11.80;;
8088;SDS011;57635;49.194;12.104;2023-05-16T04:41:25;12.23;;;11.23;;
8088;SDS011;57635;49.194;12.104;2023-05-16T04:43:53;11.60;;;10.80;;
8088;SDS011;57635;49.194;12.104;2023-05-16T04:46:20;12.77;;;11.57;;
8088;SDS011;57635;49.194;12.104;2023-05-16T04:48:49;12.70;;;11.70;;
8088;SDS011;57635;49.194;12.104;2023-05-16T04:51:17;13.70;;;12.40;;
8088;SDS011;57635;49.194;12.104;2023-05-16T04:53:44;12.80;;;11.70;;
8088;SDS011;57635;49.194;12.104;2023-05-16T04:56:12;12.50;;;11.50;;
8088;SDS011;57635;49.194;12.104;2023-05-16T04:58:39;12.03;;;11.00;;
8088;SDS011;57635;49.194;12.104;2023-05-16T05:01:08;12.63;;;11.73;;
8088;SDS011;57635;49.194;12.104;2023-05-16T05:03:36;12.90;;;11.77;;
8088;SDS011;57635;49.194;12.104;2023-05-16T05:06:05;12.23;;;11.27;;
8088;SDS011;57635;49.194;12.104;2023-05-16T05:08:32;13.40;;;12.40;;
8088;SDS011;57635;49.194;12.104;2023-05-16T05:11:00;13.67;;;12.57;;
8088;SDS011;57635;49.194;12.104;2023-05-16T05:13:28;12.80;;;11.87;;
8088;SDS011;57635;49.194;12.104;2023-05-16T05:15:55;13.03;;;12.03;;
8088;SDS011;57635;49.194;12.104;2023-05-16T05:18:23;13.27;;;11.93;;
8088;SDS011;57635;49.194;12.104;2023-05-16T05:20:51;13.47;;;12.33;;
8088;SDS011;57635;49.194;12.104;2023-05-16T05:23:20;12.67;;;11.67;;
8088;SDS011;57635;49.194;12.104;2023-05-16T05:25:47;13.27;;;12.27;;
8088;SDS011;57635;49.194;12.104;2023-05-16T05:28:15;13.57;;;12.37;;
8088;SDS011;57635;49.194;12.104;2023-05-16T05:30:43;13.13;;;12.17;;
8088;SDS011;57635;49.194;12.104;2023-05-16T05:33:12;14.03;;;12.83;;
8088;SDS011;57635;49.194;12.104;2023-05-16T05:35:41;13.80;;;12.73;;
8088;SDS011;57635;49.194;12.104;2023-05-16T05:38:08;13.87;;;12.87;;
8088;SDS011;57635;49.194;12.104;2023-05-16T05:40:37;13.50;;;12.50;;
8088;SDS011;57635;49.194;12.104;2023-05-16T05:43:05;13.90;;;12.90;;
8088;SDS011;57635;49.194;12.104;2023-05-16T05:45:32;12.77;;;11.87;;
8088;SDS011;57635;49.194;12.104;2023-05-16T05:48:00;13.67;;;12.57;;
8088;SDS011;57635;49.194;12.104;2023-05-16T05:50:27;13.73;;;12.63;;
8088;SDS011;57635;49.194;12.104;2023-05-16T05:52:55;14.00;;;12.90;;
8088;SDS011;57635;49.194;12.104;2023-05-16T05:55:22;12.77;;;11.87;;
8088;SDS011;57635;49.194;12.104;2023-05-16T05:57:52;12.77;;;11.77;;
8088;SDS011;57635;49.194;12.104;2023-05-16T06:00:19;12.90;;;11.90;;
8088;SDS011;57635;49.194;12.104;2023-05-16T06:02:47;12.30;;;11.40;;
8088;SDS011;57635;49.194;12.104;2023-05-16T06:05:15;13.83;;;12.83;;
8088;SDS011;57635;49.194;12.104;2023-05-16T06:07:42;12.63;;;11.73;;
8088;SDS011;57635;49.194;12.104;2023-05-16T06:10:10;13.17;;;12.17;;
8088;SDS011;57635;49.194;12.104;2023-05-16T06:12:38;13.30;;;12.10;;
8088;SDS011;57635;49.194;12.104;2023-05-16T06:15:07;12.50;;;11.50;;
8088;SDS011;57635;49.194;12.104;2023-05-16T06:17:36;12.70;;;11.80;;
8088;SDS011;57635;49.194;12.104;2023-05-16T06:20:04;12.37;;;11.17;;
8088;SDS011;57635;49.194;12.104;2023-05-16T06:22:33;13.37;;;12.00;;
8088;SDS011;57635;49.194;12.104;2023-05-16T06:25:00;12.43;;;11.33;;
8088;SDS011;57635;49.194;12.104;2023-05-16T06:27:28;11.87;;;11.03;;
8088;SDS011;57635;49.194;12.104;2023-05-16T06:29:56;11.43;;;10.53;;
8088;SDS011;57635;49.194;12.104;2023-05-16T06:32:25;11.13;;;10.27;;
8088;SDS011;57635;49.194;12.104;2023-05-16T06:34:52;12.10;;;11.20;;
8088;SDS011;57635;49.194;12.104;2023-05-16T06:37:20;10.93;;;10.13;;
8088;SDS011;57635;49.194;12.104;2023-05-16T06:39:48;10.87;;;10.17;;
8088;SDS011;57635;49.194;12.104;2023-05-16T06:42:16;10.80;;;9.90;;
8088;SDS011;57635;49.194;12.104;2023-05-16T06:44:44;12.40;;;11.30;;
8088;SDS011;57635;49.194;12.104;2023-05-16T06:47:12;11.33;;;10.43;;
8088;SDS011;57635;49.194;12.104;2023-05-16T06:49:42;10.50;;;9.70;;
8088;SDS011;57635;49.194;12.104;2023-05-16T06:52:09;11.00;;;10.10;;
8088;SDS011;57635;49.194;12.104;2023-05-16T06:54:37;11.00;;;10.20;;
8088;SDS011;57635;49.194;12.104;2023-05-16T06:57:05;10.80;;;10.20;;
8088;SDS011;57635;49.194;12.104;2023-05-16T06:59:33;10.77;;;9.87;;
8088;SDS011;57635;49.194;12.104;2023-05-16T07:02:01;10.90;;;10.10;;
8088;SDS011;57635;49.194;12.104;2023-05-16T07:04:29;11.67;;;10.77;;
8088;SDS011;57635;49.194;12.104;2023-05-16T07:06:58;10.50;;;9.70;;
8088;SDS011;57635;49.194;12.104;2023-05-16T07:09:25;10.77;;;9.97;;
8088;SDS011;57635;49.194;12.104;2023-05-16T07:11:53;10.37;;;9.67;;
8088;SDS011;57635;49.194;12.104;2023-05-16T07:14:21;12.03;;;11.13;;
8088;SDS011;57635;49.194;12.104;2023-05-16T07:16:48;11.77;;;10.80;;
8088;SDS011;57635;49.194;12.104;2023-05-16T07:19:16;11.30;;;10.37;;
8088;SDS011;57635;49.194;12.104;2023-05-16T07:21:44;11.30;;;10.30;;
8088;SDS011;57635;49.194;12.104;2023-05-16T07:24:13;10.57;;;9.87;;
8088;SDS011;57635;49.194;12.104;2023-05-16T07:26:40;10.37;;;9.53;;
8088;SDS011;57635;49.194;12.104;2023-05-16T07:29:08;10.40;;;9.53;;
8088;SDS011;57635;49.194;12.104;2023-05-16T07:31:36;11.57;;;10.47;;
8088;SDS011;57635;49.194;12.104;2023-05-16T07:34:04;12.13;;;11.13;;
8088;SDS011;57635;49.194;12.104;2023-05-16T07:36:32;10.03;;;9.23;;
8088;SDS011;57635;49.194;12.104;2023-05-16T07:38:59;11.33;;;10.43;;
8088;SDS011;57635;49.194;12.104;2023-05-16T07:41:28;10.53;;;9.73;;
8088;SDS011;57635;49.194;12.104;2023-05-16T07:43:56;10.70;;;9.83;;
8088;SDS011;57635;49.194;12.104;2023-05-16T07:46:24;11.13;;;10.33;;
8088;SDS011;57635;49.194;12.104;2023-05-16T07:48:51;9.57;;;8.97;;
8088;SDS011;57635;49.194;12.104;2023-05-16T07:51:19;10.83;;;10.03;;
8088;SDS011;57635;49.194;12.104;2023-05-16T07:53:47;11.40;;;10.30;;
8088;SDS011;57635;49.194;12.104;2023-05-16T07:56:14;11.27;;;10.47;;
8088;SDS011;57635;49.194;12.104;2023-05-16T07:58:44;11.93;;;10.90;;
8088;SDS011;57635;49.194;12.104;2023-05-16T08:01:14;11.33;;;10.30;;
8088;SDS011;57635;49.194;12.104;2023-05-16T08:03:42;10.80;;;10.03;;
8088;SDS011;57635;49.194;12.104;2023-05-16T08:06:09;11.47;;;10.60;;
8088;SDS011;57635;49.194;12.104;2023-05-16T08:08:37;11.30;;;10.40;;
8088;SDS011;57635;49.194;12.104;2023-05-16T08:11:05;11.23;;;10.33;;
8088;SDS011;57635;49.194;12.104;2023-05-16T08:13:32;11.03;;;10.23;;
8088;SDS011;57635;49.194;12.104;2023-05-16T08:16:02;11.37;;;10.43;;
8088;SDS011;57635;49.194;12.104;2023-05-16T08:18:30;10.93;;;10.03;;
8088;SDS011;57635;49.194;12.104;2023-05-16T08:20:57;11.43;;;10.63;;
8088;SDS011;57635;49.194;12.104;2023-05-16T08:23:25;10.73;;;9.83;;
8088;SDS011;57635;49.194;12.104;2023-05-16T08:25:53;11.97;;;10.87;;
8088;SDS011;57635;49.194;12.104;2023-05-16T08:28:20;10.30;;;9.60;;
8088;SDS011;57635;49.194;12.104;2023-05-16T08:30:48;10.73;;;9.90;;
8088;SDS011;57635;49.194;12.104;2023-05-16T08:33:17;10.90;;;10.10;;
8088;SDS011;57635;49.194;12.104;2023-05-16T08:35:45;10.23;;;9.40;;
8088;SDS011;57635;49.194;12.104;2023-05-16T08:38:14;11.47;;;10.67;;
8088;SDS011;57635;49.194;12.104;2023-05-16T08:40:41;10.37;;;9.60;;
8088;SDS011;57635;49.194;12.104;2023-05-16T08:43:09;10.57;;;9.87;;
8088;SDS011;57635;49.194;12.104;2023-05-16T08:45:37;10.73;;;9.83;;
8088;SDS011;57635;49.194;12.104;2023-05-16T08:48:06;11.37;;;10.53;;
8088;SDS011;57635;49.194;12.104;2023-05-16T08:50:37;10.60;;;9.50;;
8088;SDS011;57635;49.194;12.104;2023-05-16T08:53:05;10.47;;;9.60;;
8088;SDS011;57635;49.194;12.104;2023-05-16T08:55:34;10.57;;;9.63;;
8088;SDS011;57635;49.194;12.104;2023-05-16T08:58:02;10.13;;;9.23;;
8088;SDS011;57635;49.194;12.104;2023-05-16T09:00:30;9.47;;;8.73;;
8088;SDS011;57635;49.194;12.104;2023-05-16T09:02:58;10.63;;;9.93;;
8088;SDS011;57635;49.194;12.104;2023-05-16T09:05:28;10.90;;;10.07;;
8088;SDS011;57635;49.194;12.104;2023-05-16T09:07:57;10.07;;;9.27;;
8088;SDS011;57635;49.194;12.104;2023-05-16T09:10:25;10.40;;;9.40;;
8088;SDS011;57635;49.194;12.104;2023-05-16T09:12:53;9.47;;;8.67;;
8088;SDS011;57635;49.194;12.104;2023-05-16T09:15:20;9.60;;;9.00;;
8088;SDS011;57635;49.194;12.104;2023-05-16T09:17:48;11.30;;;10.30;;
8088;SDS011;57635;49.194;12.104;2023-05-16T09:20:16;11.47;;;10.53;;
8088;SDS011;57635;49.194;12.104;2023-05-16T09:22:51;11.07;;;10.23;;
8088;SDS011;57635;49.194;12.104;2023-05-16T09:25:21;11.57;;;10.73;;
8088;SDS011;57635;49.194;12.104;2023-05-16T09:27:53;11.70;;;10.77;;
8088;SDS011;57635;49.194;12.104;2023-05-16T09:30:22;12.73;;;11.63;;
8088;SDS011;57635;49.194;12.104;2023-05-16T09:32:51;11.73;;;10.83;;
8088;SDS011;57635;49.194;12.104;2023-05-16T09:35:19;11.13;;;10.23;;
8088;SDS011;57635;49.194;12.104;2023-05-16T09:38:11;10.03;;;9.30;;
8088;SDS011;57635;49.194;12.104;2023-05-16T09:40:41;11.67;;;10.73;;
8088;SDS011;57635;49.194;12.104;2023-05-16T09:43:09;11.33;;;10.40;;
8088;SDS011;57635;49.194;12.104;2023-05-16T09:45:36;11.83;;;10.43;;
8088;SDS011;57635;49.194;12.104;2023-05-16T09:48:05;11.07;;;10.17;;
8088;SDS011;57635;49.194;12.104;2023-05-16T09:50:35;11.13;;;10.33;;
8088;SDS011;57635;49.194;12.104;2023-05-16T09:53:05;11.33;;;10.43;;
8088;SDS011;57635;49.194;12.104;2023-05-16T09:55:33;11.13;;;10.43;;
8088;SDS011;57635;49.194;12.104;2023-05-16T09:58:02;10.90;;;10.20;;
8088;SDS011;57635;49.194;12.104;2023-05-16T10:00:30;11.33;;;10.33;;
8088;SDS011;57635;49.194;12.104;2023-05-16T10:02:59;11.20;;;10.20;;
8088;SDS011;57635;49.194;12.104;2023-05-16T10:05:31;10.67;;;9.87;;
8088;SDS011;57635;49.194;12.104;2023-05-16T10:07:59;12.00;;;11.00;;
8088;SDS011;57635;49.194;12.104;2023-05-16T10:10:29;10.53;;;9.73;;
8088;SDS011;57635;49.194;12.104;2023-05-16T10:12:57;9.10;;;8.43;;
8088;SDS011;57635;49.194;12.104;2023-05-16T10:15:27;8.83;;;8.17;;
8088;SDS011;57635;49.194;12.104;2023-05-16T10:17:55;8.87;;;8.27;;
8088;SDS011;57635;49.194;12.104;2023-05-16T10:20:26;8.70;;;8.10;;
8088;SDS011;57635;49.194;12.104;2023-05-16T10:22:54;8.77;;;8.10;;
8088;SDS011;57635;49.194;12.104;2023-05-16T10:25:25;8.33;;;7.63;;
8088;SDS011;57635;49.194;12.104;2023-05-16T10:27:56;8.33;;;7.80;;
8088;SDS011;57635;49.194;12.104;2023-05-16T10:30:24;8.63;;;7.93;;
8088;SDS011;57635;49.194;12.104;2023-05-16T10:32:53;8.37;;;7.70;;
8088;SDS011;57635;49.194;12.104;2023-05-16T10:35:22;8.43;;;7.90;;
8088;SDS011;57635;49.194;12.104;2023-05-16T10:37:52;8.53;;;7.87;;
8088;SDS011;57635;49.194;12.104;2023-05-16T10:40:21;8.90;;;8.07;;
8088;SDS011;57635;49.194;12.104;2023-05-16T10:42:55;7.93;;;7.33;;
8088;SDS011;57635;49.194;12.104;2023-05-16T10:45:23;8.63;;;7.90;;
8088;SDS011;57635;49.194;12.104;2023-05-16T10:47:51;10.70;;;7.33;;
8088;SDS011;57635;49.194;12.104;2023-05-16T10:50:31;7.43;;;6.77;;
8088;SDS011;57635;49.194;12.104;2023-05-16T10:53:12;7.93;;;7.33;;
8088;SDS011;57635;49.194;12.104;2023-05-16T10:55:43;8.03;;;7.40;;
8088;SDS011;57635;49.194;12.104;2023-05-16T10:58:11;7.23;;;6.70;;
8088;SDS011;57635;49.194;12.104;2023-05-16T11:00:39;8.07;;;7.27;;
8088;SDS011;57635;49.194;12.104;2023-05-16T11:03:18;6.50;;;6.10;;
8088;SDS011;57635;49.194;12.104;2023-05-16T11:05:51;7.50;;;7.00;;
8088;SDS011;57635;49.194;12.104;2023-05-16T11:08:19;7.97;;;7.27;;
8088;SDS011;57635;49.194;12.104;2023-05-16T11:10:47;7.53;;;6.93;;
8088;SDS011;57635;49.194;12.104;2023-05-16T11:13:14;7.37;;;6.87;;
8088;SDS011;57635;49.194;12.104;2023-05-16T11:15:44;7.70;;;7.00;;
8088;SDS011;57635;49.194;12.104;2023-05-16T11:18:14;7.33;;;6.67;;
8088;SDS011;57635;49.194;12.104;2023-05-16T11:20:44;6.80;;;6.10;;
8088;SDS011;57635;49.194;12.104;2023-05-16T11:23:18;8.93;;;7.03;;
8088;SDS011;57635;49.194;12.104;2023-05-16T11:25:47;7.13;;;6.60;;
8088;SDS011;57635;49.194;12.104;2023-05-16T11:28:17;6.47;;;5.87;;
8088;SDS011;57635;49.194;12.104;2023-05-16T11:30:45;6.87;;;6.37;;
8088;SDS011;57635;49.194;12.104;2023-05-16T11:33:16;7.10;;;6.50;;
8088;SDS011;57635;49.194;12.104;2023-05-16T11:35:48;6.90;;;6.37;;
8088;SDS011;57635;49.194;12.104;2023-05-16T11:38:40;7.50;;;6.80;;
8088;SDS011;57635;49.194;12.104;2023-05-16T11:41:09;6.10;;;5.60;;
8088;SDS011;57635;49.194;12.104;2023-05-16T11:43:40;6.47;;;5.97;;
8088;SDS011;57635;49.194;12.104;2023-05-16T11:46:12;6.57;;;6.10;;
8088;SDS011;57635;49.194;12.104;2023-05-16T11:48:41;5.80;;;5.40;;
8088;SDS011;57635;49.194;12.104;2023-05-16T11:51:11;5.90;;;5.50;;
8088;SDS011;57635;49.194;12.104;2023-05-16T11:53:39;5.50;;;5.00;;
8088;SDS011;57635;49.194;12.104;2023-05-16T11:56:07;4.93;;;4.63;;
8088;SDS011;57635;49.194;12.104;2023-05-16T11:58:35;5.60;;;5.20;;
8088;SDS011;57635;49.194;12.104;2023-05-16T12:01:03;6.10;;;5.60;;
8088;SDS011;57635;49.194;12.104;2023-05-16T12:03:31;4.80;;;4.57;;
8088;SDS011;57635;49.194;12.104;2023-05-16T12:06:02;4.87;;;4.50;;
8088;SDS011;57635;49.194;12.104;2023-05-16T12:08:30;5.40;;;5.10;;
8088;SDS011;57635;49.194;12.104;2023-05-16T12:10:57;5.73;;;5.33;;
8088;SDS011;57635;49.194;12.104;2023-05-16T12:13:25;5.60;;;5.10;;
8088;SDS011;57635;49.194;12.104;2023-05-16T12:15:53;5.10;;;4.77;;
8088;SDS011;57635;49.194;12.104;2023-05-16T12:18:21;5.57;;;5.17;;
8088;SDS011;57635;49.194;12.104;2023-05-16T12:20:50;5.70;;;5.30;;
8088;SDS011;57635;49.194;12.104;2023-05-16T12:23:19;6.03;;;5.50;;
8088;SDS011;57635;49.194;12.104;2023-05-16T12:25:47;7.27;;;6.77;;
8088;SDS011;57635;49.194;12.104;2023-05-16T12:28:15;7.60;;;7.00;;
8088;SDS011;57635;49.194;12.104;2023-05-16T12:30:43;7.60;;;7.20;;
8088;SDS011;57635;49.194;12.104;2023-05-16T12:33:13;6.80;;;6.37;;
8088;SDS011;57635;49.194;12.104;2023-05-16T12:35:42;7.50;;;6.93;;
8088;SDS011;57635;49.194;12.104;2023-05-16T12:38:12;7.67;;;7.17;;
8088;SDS011;57635;49.194;12.104;2023-05-16T12:40:42;8.03;;;7.43;;
8088;SDS011;57635;49.194;12.104;2023-05-16T12:43:13;9.70;;;9.00;;
8088;SDS011;57635;49.194;12.104;2023-05-16T12:45:41;9.20;;;8.50;;
8088;SDS011;57635;49.194;12.104;2023-05-16T12:48:12;9.00;;;8.37;;
8088;SDS011;57635;49.194;12.104;2023-05-16T12:50:40;10.30;;;9.50;;
8088;SDS011;57635;49.194;12.104;2023-05-16T12:53:09;9.40;;;8.77;;
8088;SDS011;57635;49.194;12.104;2023-05-16T12:55:38;9.83;;;9.03;;
8088;SDS011;57635;49.194;12.104;2023-05-16T12:58:07;10.00;;;9.13;;
8088;SDS011;57635;49.194;12.104;2023-05-16T13:00:36;8.87;;;8.27;;
8088;SDS011;57635;49.194;12.104;2023-05-16T13:03:04;8.73;;;8.10;;
8088;SDS011;57635;49.194;12.104;2023-05-16T13:05:32;8.33;;;7.73;;
8088;SDS011;57635;49.194;12.104;2023-05-16T13:08:01;7.73;;;7.13;;
8088;SDS011;57635;49.194;12.104;2023-05-16T13:10:29;7.57;;;7.07;;
8088;SDS011;57635;49.194;12.104;2023-05-16T13:12:56;8.03;;;7.37;;
8088;SDS011;57635;49.194;12.104;2023-05-16T13:15:26;7.50;;;6.83;;
8088;SDS011;57635;49.194;12.104;2023-05-16T13:17:54;8.53;;;7.93;;
8088;SDS011;57635;49.194;12.104;2023-05-16T13:20:22;7.60;;;7.20;;
8088;SDS011;57635;49.194;12.104;2023-05-16T13:22:50;7.87;;;7.27;;
8088;SDS011;57635;49.194;12.104;2023-05-16T13:25:18;8.13;;;7.53;;
8088;SDS011;57635;49.194;12.104;2023-05-16T13:27:46;8.90;;;8.00;;
8088;SDS011;57635;49.194;12.104;2023-05-16T13:30:14;9.87;;;8.87;;
8088;SDS011;57635;49.194;12.104;2023-05-16T13:32:43;9.83;;;9.13;;
8088;SDS011;57635;49.194;12.104;2023-05-16T13:35:11;9.17;;;8.57;;
8088;SDS011;57635;49.194;12.104;2023-05-16T13:37:38;10.70;;;9.80;;
8088;SDS011;57635;49.194;12.104;2023-05-16T13:40:07;10.60;;;9.80;;
8088;SDS011;57635;49.194;12.104;2023-05-16T13:42:36;10.30;;;9.50;;
8088;SDS011;57635;49.194;12.104;2023-05-16T13:45:04;7.87;;;7.37;;
8088;SDS011;57635;49.194;12.104;2023-05-16T13:47:33;8.77;;;8.17;;
8088;SDS011;57635;49.194;12.104;2023-05-16T13:50:02;8.43;;;7.90;;
8088;SDS011;57635;49.194;12.104;2023-05-16T13:52:34;9.13;;;8.33;;
8088;SDS011;57635;49.194;12.104;2023-05-16T13:55:03;9.80;;;8.70;;
8088;SDS011;57635;49.194;12.104;2023-05-16T13:57:31;9.07;;;8.37;;
8088;SDS011;57635;49.194;12.104;2023-05-16T13:59:59;8.90;;;8.30;;
8088;SDS011;57635;49.194;12.104;2023-05-16T14:02:30;9.37;;;8.57;;
8088;SDS011;57635;49.194;12.104;2023-05-16T14:04:57;9.60;;;8.90;;
8088;SDS011;57635;49.194;12.104;2023-05-16T14:07:26;11.27;;;8.53;;
8088;SDS011;57635;49.194;12.104;2023-05-16T14:09:54;9.03;;;8.33;;
8088;SDS011;57635;49.194;12.104;2023-05-16T14:12:22;8.73;;;8.00;;
8088;SDS011;57635;49.194;12.104;2023-05-16T14:14:49;8.70;;;8.10;;
8088;SDS011;57635;49.194;12.104;2023-05-16T14:17:17;9.50;;;8.90;;
8088;SDS011;57635;49.194;12.104;2023-05-16T14:19:45;8.93;;;8.33;;
8088;SDS011;57635;49.194;12.104;2023-05-16T14:22:12;10.33;;;9.40;;
8088;SDS011;57635;49.194;12.104;2023-05-16T14:24:41;10.60;;;9.80;;
8088;SDS011;57635;49.194;12.104;2023-05-16T14:27:09;10.97;;;9.90;;
8088;SDS011;57635;49.194;12.104;2023-05-16T14:29:36;10.60;;;9.77;;
8088;SDS011;57635;49.194;12.104;2023-05-16T14:32:04;11.20;;;10.30;;
8088;SDS011;57635;49.194;12.104;2023-05-16T14:34:32;11.90;;;10.90;;
8088;SDS011;57635;49.194;12.104;2023-05-16T14:36:59;10.90;;;10.00;;
8088;SDS011;57635;49.194;12.104;2023-05-16T14:39:27;10.17;;;9.40;;